KGPC

Putnam County Regional Airport

Greencastle, Indiana, USA
METAR KGPC 182315Z AUTO 01005KT 10SM CLR 25/19 A2995 RMK AO2
Observed Flight Rules
Aug-18 @ 23:15 UTC (31 minutes ago) Visual Flight Rules
Wind Visibility Clouds
10° at 5 knots 10 miles
  • Clear skies
Temperatures Readings
Current 25°C / 77°F
Dewpoint 19°C / 66°F
Humidity 69%
Altimeter 29.95" Hg
Pressure 1014 hPa
Elevation 257
METAR KGPC 182315Z AUTO 01005KT 10SM CLR 25/19 A2995 RMK AO2
Observed Flight Rules
Aug-18 @ 23:15 UTC
(31 minutes ago)
VFR
Wind Visibility
10° at 5 knots 10 miles
Clouds
  • Clear skies
Temperature Dewpoint
25°C / 77°F 19°C / 66°F
Humidity Altimeter Pressure
69% 29.95" Hg 1014 hPa